createdAt,value
2022-09-25T00:00:43.081Z,27.63
2022-09-25T00:03:11.006Z,26.90
2022-09-25T00:05:40.837Z,27.60
2022-09-25T00:08:07.304Z,27.13
2022-09-25T00:10:33.551Z,27.60
2022-09-25T00:12:59.771Z,29.75
2022-09-25T00:15:26.240Z,27.08
2022-09-25T00:17:52.449Z,28.73
2022-09-25T00:20:20.480Z,27.35
2022-09-25T00:22:47.278Z,27.48
2022-09-25T00:25:14.351Z,27.42
2022-09-25T00:27:41.448Z,28.45
2022-09-25T00:30:08.395Z,28.23
2022-09-25T00:32:34.725Z,29.67
2022-09-25T00:35:00.947Z,29.88
2022-09-25T00:37:28.463Z,28.27
2022-09-25T00:39:55.113Z,27.38
2022-09-25T00:42:21.890Z,28.92
2022-09-25T00:44:59.054Z,29.60
2022-09-25T00:47:31.910Z,32.60
2022-09-25T00:49:59.090Z,30.60
2022-09-25T00:52:25.606Z,28.90
2022-09-25T00:54:57.643Z,29.98
2022-09-25T00:57:26.935Z,31.15
2022-09-25T00:59:56.623Z,28.45
2022-09-25T01:02:30.538Z,31.48
2022-09-25T01:04:59.700Z,29.58
2022-09-25T01:07:26.000Z,29.23
2022-09-25T01:09:52.389Z,28.00
2022-09-25T01:12:18.641Z,27.67
2022-09-25T01:14:44.903Z,27.85
2022-09-25T01:17:19.982Z,29.02
2022-09-25T01:19:50.173Z,27.25
2022-09-25T01:22:26.284Z,28.23
2022-09-25T01:25:12.006Z,28.10
2022-09-25T01:27:41.932Z,27.55
2022-09-25T01:30:10.095Z,24.88
2022-09-25T01:32:39.303Z,25.02
2022-09-25T01:35:24.244Z,23.80
2022-09-25T01:37:55.058Z,22.60
2022-09-25T01:40:27.578Z,22.10
2022-09-25T01:42:57.686Z,19.88
2022-09-25T01:45:28.509Z,21.73
2022-09-25T01:47:57.060Z,21.50
2022-09-25T01:50:29.636Z,20.70
2022-09-25T01:52:59.223Z,19.75
2022-09-25T01:55:29.705Z,21.13
2022-09-25T01:57:59.163Z,18.30
2022-09-25T02:00:25.726Z,19.55
2022-09-25T02:02:56.787Z,18.13
2022-09-25T02:05:28.230Z,18.20
2022-09-25T02:07:56.562Z,18.13
2022-09-25T02:10:29.137Z,18.63
2022-09-25T02:12:57.997Z,16.90
2022-09-25T02:15:32.411Z,18.02
2022-09-25T02:18:25.320Z,17.80
2022-09-25T02:21:05.163Z,15.95
2022-09-25T02:23:47.528Z,18.23
2022-09-25T02:26:17.785Z,15.68
2022-09-25T02:28:43.979Z,15.45
2022-09-25T02:31:11.825Z,14.90
2022-09-25T02:33:38.322Z,14.48
2022-09-25T02:36:06.243Z,13.55
2022-09-25T02:38:33.498Z,12.75
2022-09-25T02:41:14.774Z,12.10
2022-09-25T02:44:01.183Z,10.35
2022-09-25T02:46:33.011Z,10.13
2022-09-25T02:49:05.881Z,9.25
2022-09-25T02:51:35.261Z,8.73
2022-09-25T02:54:01.426Z,8.18
2022-09-25T02:57:02.977Z,7.88
2022-09-25T02:59:33.800Z,7.45
2022-09-25T03:02:00.214Z,6.15
2022-09-25T03:04:27.454Z,6.15
2022-09-25T03:06:53.837Z,5.45
2022-09-25T03:09:22.123Z,5.90
2022-09-25T03:11:48.419Z,6.03
2022-09-25T03:14:15.047Z,5.38
2022-09-25T03:16:51.514Z,5.28
2022-09-25T03:19:21.266Z,5.72
2022-09-25T03:21:47.994Z,5.22
2022-09-25T03:24:14.758Z,5.00
2022-09-25T03:26:41.498Z,4.63
2022-09-25T03:29:07.814Z,4.38
2022-09-25T03:31:34.284Z,4.22
2022-09-25T03:34:00.824Z,4.28
2022-09-25T03:36:28.079Z,4.45
2022-09-25T03:38:58.881Z,3.75
2022-09-25T03:41:27.017Z,3.70
2022-09-25T03:43:53.800Z,4.55
2022-09-25T03:46:21.276Z,6.30
2022-09-25T03:48:47.604Z,6.72
2022-09-25T03:51:13.834Z,7.97
2022-09-25T03:53:40.560Z,7.13
2022-09-25T03:56:08.018Z,8.00
2022-09-25T03:58:34.295Z,7.68
2022-09-25T04:01:01.398Z,8.15
2022-09-25T04:03:28.574Z,9.25
2022-09-25T04:05:58.918Z,8.60
2022-09-25T04:08:26.871Z,9.18
2022-09-25T04:10:56.088Z,9.43
2022-09-25T04:13:26.483Z,11.02
2022-09-25T04:15:52.809Z,9.82
2022-09-25T04:18:19.077Z,9.77
2022-09-25T04:20:45.363Z,8.75
2022-09-25T04:23:11.547Z,8.38
2022-09-25T04:25:37.701Z,7.45
2022-09-25T04:28:04.519Z,6.97
2022-09-25T04:30:30.915Z,6.38
2022-09-25T04:33:15.978Z,5.72
2022-09-25T04:35:42.209Z,4.97
2022-09-25T04:38:09.652Z,5.30
2022-09-25T04:40:36.852Z,4.97
2022-09-25T04:43:04.650Z,4.82
2022-09-25T04:45:32.760Z,4.43
2022-09-25T04:47:59.700Z,4.22
2022-09-25T04:50:26.740Z,3.85
2022-09-25T04:52:53.188Z,3.33
2022-09-25T04:55:20.282Z,3.63
2022-09-25T04:57:59.198Z,3.92
2022-09-25T05:00:27.311Z,4.00
2022-09-25T05:02:53.595Z,3.58
2022-09-25T05:05:19.878Z,3.38
2022-09-25T05:07:53.057Z,3.60
2022-09-25T05:10:20.607Z,2.92
2022-09-25T05:12:47.715Z,3.95
2022-09-25T05:15:14.124Z,3.22
2022-09-25T05:17:40.335Z,3.35
2022-09-25T05:20:06.810Z,3.15
2022-09-25T05:22:32.996Z,3.05
2022-09-25T05:24:59.348Z,3.25
2022-09-25T05:27:25.578Z,3.47
2022-09-25T05:29:51.774Z,3.67
2022-09-25T05:32:18.778Z,3.20
2022-09-25T05:34:44.975Z,3.17
2022-09-25T05:37:11.127Z,3.92
2022-09-25T05:39:37.325Z,3.30
2022-09-25T05:42:03.766Z,3.60
2022-09-25T05:44:29.975Z,3.40
2022-09-25T05:46:56.436Z,3.90
2022-09-25T05:49:23.336Z,3.10
2022-09-25T05:51:49.610Z,3.92
2022-09-25T05:54:15.821Z,4.35
2022-09-25T05:56:42.047Z,3.63
2022-09-25T05:59:08.276Z,3.80
2022-09-25T06:01:34.574Z,4.80
2022-09-25T06:04:00.890Z,3.95
2022-09-25T06:06:27.694Z,4.45
2022-09-25T06:08:54.268Z,5.28
2022-09-25T06:11:20.460Z,4.38
2022-09-25T06:13:52.050Z,5.10
2022-09-25T06:16:20.610Z,4.13
2022-09-25T06:18:47.458Z,4.53
2022-09-25T06:21:13.949Z,4.45
2022-09-25T06:23:41.731Z,4.82
2022-09-25T06:26:09.287Z,4.13
2022-09-25T06:28:35.529Z,4.70
2022-09-25T06:31:02.463Z,4.80
2022-09-25T06:33:29.081Z,5.13
2022-09-25T06:35:55.374Z,5.68
2022-09-25T06:38:21.711Z,6.90
2022-09-25T06:40:48.013Z,6.18
2022-09-25T06:43:15.355Z,5.78
2022-09-25T06:45:42.149Z,5.95
2022-09-25T06:48:10.112Z,5.65
2022-09-25T06:50:39.907Z,5.07
2022-09-25T06:53:06.147Z,5.43
2022-09-25T06:55:32.406Z,6.75
2022-09-25T06:57:58.804Z,5.30
2022-09-25T07:00:25.135Z,5.80
2022-09-25T07:03:09.868Z,4.53
2022-09-25T07:05:36.179Z,4.85
2022-09-25T07:08:02.430Z,4.60
2022-09-25T07:10:28.651Z,4.68
2022-09-25T07:12:54.873Z,4.30
2022-09-25T07:15:22.612Z,4.65
2022-09-25T07:17:49.103Z,3.63
2022-09-25T07:20:15.686Z,3.90
2022-09-25T07:22:42.580Z,3.38
2022-09-25T07:25:09.512Z,3.30
2022-09-25T07:27:36.142Z,3.10
2022-09-25T07:30:03.059Z,3.33
2022-09-25T07:32:29.305Z,4.05
2022-09-25T07:34:55.514Z,2.90
2022-09-25T07:37:21.702Z,2.95
2022-09-25T07:39:47.891Z,2.83
2022-09-25T07:42:14.184Z,2.63
2022-09-25T07:44:44.699Z,2.50
2022-09-25T07:47:15.132Z,2.65
2022-09-25T07:49:41.390Z,2.55
2022-09-25T07:52:07.551Z,2.40
2022-09-25T07:54:36.334Z,3.22
2022-09-25T07:57:02.560Z,2.50
2022-09-25T07:59:28.891Z,2.22
2022-09-25T08:01:55.196Z,2.67
2022-09-25T08:04:21.445Z,3.00
2022-09-25T08:06:47.643Z,1.98
2022-09-25T08:09:13.890Z,2.40
2022-09-25T08:11:40.145Z,1.90
2022-09-25T08:14:06.386Z,1.70
2022-09-25T08:16:32.771Z,1.95
2022-09-25T08:18:59.030Z,2.00
2022-09-25T08:21:25.247Z,1.70
2022-09-25T08:23:52.226Z,2.20
2022-09-25T08:26:20.697Z,2.75
2022-09-25T08:28:46.908Z,2.53
2022-09-25T08:31:14.747Z,3.10
2022-09-25T08:33:44.481Z,3.00
2022-09-25T08:36:10.706Z,3.47
2022-09-25T08:38:36.917Z,2.90
2022-09-25T08:41:07.869Z,3.28
2022-09-25T08:43:36.349Z,2.40
2022-09-25T08:46:23.506Z,2.83
2022-09-25T08:49:02.363Z,2.60
2022-09-25T08:51:29.507Z,1.98
2022-09-25T08:53:55.945Z,2.20
2022-09-25T08:56:24.562Z,2.60
2022-09-25T08:59:03.538Z,2.22
2022-09-25T09:01:46.964Z,2.60
2022-09-25T09:04:19.072Z,2.08
2022-09-25T09:06:49.804Z,2.30
2022-09-25T09:09:37.932Z,3.05
2022-09-25T09:12:09.503Z,2.42
2022-09-25T09:14:40.171Z,2.53
2022-09-25T09:17:11.812Z,2.13
2022-09-25T09:19:38.440Z,2.78
2022-09-25T09:22:11.257Z,2.50
2022-09-25T09:24:49.379Z,2.63
2022-09-25T09:27:27.779Z,2.35
2022-09-25T09:30:05.803Z,2.60
2022-09-25T09:32:40.618Z,1.92
2022-09-25T09:35:12.567Z,1.42
2022-09-25T09:37:44.606Z,2.55
2022-09-25T09:40:23.088Z,1.63
2022-09-25T09:42:57.394Z,1.58
2022-09-25T09:45:29.404Z,1.42
2022-09-25T09:48:02.092Z,1.92
2022-09-25T09:50:52.105Z,2.05
2022-09-25T09:53:28.721Z,2.45
2022-09-25T09:55:58.509Z,2.10
2022-09-25T09:58:29.061Z,2.13
2022-09-25T10:00:55.262Z,2.28
2022-09-25T10:03:27.917Z,2.08
2022-09-25T10:05:58.963Z,2.00
2022-09-25T10:08:25.361Z,1.65
2022-09-25T10:10:55.588Z,1.27
2022-09-25T10:13:32.619Z,2.45
2022-09-25T10:16:00.822Z,1.70
2022-09-25T10:18:40.760Z,1.58
2022-09-25T10:21:06.922Z,1.55
2022-09-25T10:23:38.963Z,1.50
2022-09-25T10:26:22.928Z,1.70
2022-09-25T10:28:49.161Z,1.92
2022-09-25T10:31:16.070Z,2.42
2022-09-25T10:33:42.357Z,2.53
2022-09-25T10:36:08.565Z,2.72
2022-09-25T10:38:38.430Z,1.80
2022-09-25T10:41:07.632Z,1.80
2022-09-25T10:43:33.900Z,1.98
2022-09-25T10:46:07.689Z,1.98
2022-09-25T10:48:53.687Z,1.50
2022-09-25T10:51:21.548Z,1.63
2022-09-25T10:53:49.067Z,1.90
2022-09-25T10:56:20.469Z,1.80
2022-09-25T10:58:50.547Z,2.15
2022-09-25T11:01:17.870Z,1.83
2022-09-25T11:03:45.934Z,1.60
2022-09-25T11:06:23.635Z,1.70
2022-09-25T11:08:55.507Z,1.70
2022-09-25T11:11:26.692Z,1.70
2022-09-25T11:13:55.274Z,2.05
2022-09-25T11:16:21.553Z,1.63
2022-09-25T11:18:51.871Z,1.33
2022-09-25T11:21:23.445Z,1.60
2022-09-25T11:23:59.663Z,1.50
2022-09-25T11:26:29.430Z,2.08
2022-09-25T11:29:07.632Z,2.28
2022-09-25T11:31:44.972Z,2.65
2022-09-25T11:34:11.247Z,2.22
2022-09-25T11:36:44.451Z,2.05
2022-09-25T11:39:34.570Z,1.95
2022-09-25T11:42:05.118Z,1.67
2022-09-25T11:44:34.322Z,1.88
2022-09-25T11:47:17.617Z,1.73
2022-09-25T11:49:47.895Z,1.42
2022-09-25T11:52:20.295Z,1.65
2022-09-25T11:55:05.707Z,2.22
2022-09-25T11:57:35.150Z,1.73
2022-09-25T12:00:14.305Z,1.75
2022-09-25T12:02:52.822Z,2.03
2022-09-25T12:05:19.060Z,1.90
2022-09-25T12:08:04.073Z,2.22
2022-09-25T12:10:33.198Z,2.03
2022-09-25T12:13:05.645Z,2.67
2022-09-25T12:16:00.976Z,2.30
2022-09-25T12:18:41.810Z,1.55
2022-09-25T12:21:11.721Z,1.95
2022-09-25T12:23:48.151Z,1.58
2022-09-25T12:26:23.337Z,1.23
2022-09-25T12:29:06.133Z,1.85
2022-09-25T12:31:41.466Z,1.52
2022-09-25T12:34:16.744Z,1.42
2022-09-25T12:36:46.751Z,1.70
2022-09-25T12:39:25.535Z,1.42
2022-09-25T12:41:55.595Z,1.40
2022-09-25T12:44:32.889Z,1.35
2022-09-25T12:47:09.028Z,1.23
2022-09-25T12:49:38.638Z,0.90
2022-09-25T12:52:13.634Z,1.05
2022-09-25T12:54:50.871Z,1.33
2022-09-25T12:57:38.196Z,0.90
2022-09-25T13:00:21.625Z,1.55
2022-09-25T13:02:57.156Z,0.90
2022-09-25T13:05:30.268Z,1.30
2022-09-25T13:08:03.046Z,0.90
2022-09-25T13:10:33.144Z,1.20
2022-09-25T13:13:01.076Z,1.17
2022-09-25T13:15:32.215Z,1.08
2022-09-25T13:17:59.040Z,1.00
2022-09-25T13:20:31.800Z,1.00
2022-09-25T13:23:10.355Z,0.77
2022-09-25T13:26:02.920Z,1.00
2022-09-25T13:28:52.175Z,0.95
2022-09-25T13:31:22.928Z,1.25
2022-09-25T13:34:12.154Z,0.80
2022-09-25T13:36:38.580Z,0.70
2022-09-25T13:39:24.997Z,0.88
2022-09-25T13:41:59.031Z,0.80
2022-09-25T13:44:40.178Z,0.97
2022-09-25T13:47:22.963Z,0.75
2022-09-25T13:50:07.944Z,0.90
2022-09-25T13:52:36.915Z,0.80
2022-09-25T13:55:20.106Z,1.13
2022-09-25T13:57:58.608Z,0.68
2022-09-25T14:00:33.758Z,0.70
2022-09-25T14:03:03.081Z,0.90
2022-09-25T14:05:35.991Z,0.93
2022-09-25T14:08:13.091Z,0.90
2022-09-25T14:10:47.150Z,1.02
2022-09-25T14:13:14.407Z,1.03
2022-09-25T14:15:42.062Z,0.70
2022-09-25T14:18:13.768Z,1.17
2022-09-25T14:20:41.741Z,1.20
2022-09-25T14:23:13.748Z,1.27
2022-09-25T14:25:44.167Z,0.95
2022-09-25T14:28:18.469Z,0.90
2022-09-25T14:31:08.033Z,0.80
2022-09-25T14:33:36.125Z,1.02
2022-09-25T14:36:02.352Z,1.00
2022-09-25T14:38:38.781Z,1.20
2022-09-25T14:41:25.587Z,1.17
2022-09-25T14:43:54.859Z,0.85
2022-09-25T14:46:21.883Z,0.60
2022-09-25T14:48:54.275Z,0.70
2022-09-25T14:51:25.415Z,0.90
2022-09-25T14:53:54.779Z,1.02
2022-09-25T14:56:22.125Z,0.60
2022-09-25T14:58:50.009Z,0.77
2022-09-25T15:01:22.786Z,0.95
2022-09-25T15:03:49.239Z,1.00
2022-09-25T15:06:26.144Z,0.75
2022-09-25T15:08:52.710Z,1.20
2022-09-25T15:11:19.903Z,0.90
2022-09-25T15:13:46.215Z,0.80
2022-09-25T15:16:49.556Z,0.90
2022-09-25T15:19:17.802Z,1.25
2022-09-25T15:21:44.172Z,0.73
2022-09-25T15:24:13.776Z,1.20
2022-09-25T15:26:43.419Z,0.85
2022-09-25T15:29:18.034Z,0.90
2022-09-25T15:31:51.033Z,0.95
2022-09-25T15:34:20.597Z,1.27
2022-09-25T15:36:46.841Z,1.17
2022-09-25T15:39:15.113Z,1.05
2022-09-25T15:41:44.637Z,0.98
2022-09-25T15:44:31.694Z,0.90
2022-09-25T15:46:59.016Z,0.95
2022-09-25T15:49:28.231Z,1.08
2022-09-25T15:52:00.845Z,1.15
2022-09-25T15:54:46.103Z,1.10
2022-09-25T15:59:59.583Z,1.23
2022-09-25T16:02:49.873Z,1.00
2022-09-25T16:05:21.336Z,1.60
2022-09-25T16:07:47.859Z,1.30
2022-09-25T16:10:17.107Z,1.42
2022-09-25T16:12:47.776Z,1.20
2022-09-25T16:15:26.582Z,1.17
2022-09-25T16:18:05.405Z,4.40
2022-09-25T16:20:33.743Z,2.58
2022-09-25T16:23:01.917Z,32.88
2022-09-25T16:25:32.066Z,3.67
2022-09-25T16:28:19.310Z,3.63
2022-09-25T16:31:02.244Z,3.20
2022-09-25T16:33:31.165Z,7.68
2022-09-25T16:36:14.527Z,2.67
2022-09-25T16:39:01.600Z,1.25
2022-09-25T16:41:27.863Z,3.33
2022-09-25T16:44:14.002Z,2.20
2022-09-25T16:46:41.316Z,1.50
2022-09-25T16:49:07.840Z,3.20
2022-09-25T16:51:34.595Z,1.80
2022-09-25T16:54:01.205Z,1.83
2022-09-25T16:56:29.428Z,1.75
2022-09-25T16:58:56.197Z,1.30
2022-09-25T17:01:23.643Z,11.27
2022-09-25T17:03:50.429Z,6.38
2022-09-25T17:06:17.303Z,1.48
2022-09-25T17:08:43.644Z,3.60
2022-09-25T17:11:10.674Z,2.08
2022-09-25T17:13:37.408Z,31.42
2022-09-25T17:16:03.891Z,16.10
2022-09-25T17:18:30.206Z,24.73
2022-09-25T17:20:57.083Z,1.85
2022-09-25T17:23:24.137Z,5.80
2022-09-25T17:25:52.677Z,18.45
2022-09-25T17:28:18.864Z,14.60
2022-09-25T17:30:45.252Z,39.47
2022-09-25T17:33:18.810Z,9.18
2022-09-25T17:35:55.581Z,63.47
2022-09-25T17:38:21.816Z,20.58
2022-09-25T17:40:52.093Z,65.20
2022-09-25T17:43:19.547Z,13.23
2022-09-25T17:45:49.902Z,18.30
2022-09-25T17:48:17.039Z,11.40
2022-09-25T17:50:44.502Z,4.18
2022-09-25T17:53:16.049Z,2.33
2022-09-25T17:55:42.225Z,1.33
2022-09-25T17:58:08.468Z,2.00
2022-09-25T18:00:34.675Z,3.13
2022-09-25T18:03:00.970Z,4.15
2022-09-25T18:05:29.461Z,2.25
2022-09-25T18:07:55.887Z,4.30
2022-09-25T18:10:22.160Z,3.00
2022-09-25T18:12:48.426Z,2.85
2022-09-25T18:15:14.698Z,2.72
2022-09-25T18:17:41.016Z,5.55
2022-09-25T18:20:26.673Z,3.97
2022-09-25T18:22:52.964Z,2.03
2022-09-25T18:25:19.254Z,10.43
2022-09-25T18:27:45.496Z,4.82
2022-09-25T18:30:16.614Z,4.30
2022-09-25T18:32:44.098Z,3.92
2022-09-25T18:35:12.392Z,3.40
2022-09-25T18:37:38.614Z,3.28
2022-09-25T18:40:05.138Z,3.78
2022-09-25T18:42:31.577Z,3.05
2022-09-25T18:44:57.997Z,3.45
2022-09-25T18:47:24.409Z,3.83
2022-09-25T18:49:50.812Z,4.10
2022-09-25T18:52:17.098Z,4.65
2022-09-25T18:54:43.331Z,3.42
2022-09-25T18:57:10.697Z,3.63
2022-09-25T18:59:36.918Z,2.50
2022-09-25T19:02:03.611Z,1.80
2022-09-25T19:04:29.954Z,1.75
2022-09-25T19:06:56.445Z,1.63
2022-09-25T19:09:27.565Z,2.35
2022-09-25T19:11:55.022Z,1.50
2022-09-25T19:14:21.933Z,1.73
2022-09-25T19:16:48.244Z,1.50
2022-09-25T19:19:14.480Z,1.75
2022-09-25T19:21:44.698Z,2.10
2022-09-25T19:24:11.601Z,2.10
2022-09-25T19:26:38.075Z,2.30
2022-09-25T19:29:05.178Z,2.35
2022-09-25T19:31:31.515Z,2.30
2022-09-25T19:33:58.066Z,2.35
2022-09-25T19:36:26.214Z,2.47
2022-09-25T19:38:53.519Z,1.90
2022-09-25T19:41:22.635Z,2.28
2022-09-25T19:43:48.907Z,2.50
2022-09-25T19:46:17.651Z,2.40
2022-09-25T19:48:44.552Z,3.33
2022-09-25T19:51:10.877Z,2.92
2022-09-25T19:53:38.844Z,3.13
2022-09-25T19:56:05.968Z,3.25
2022-09-25T19:58:36.078Z,2.63
2022-09-25T20:01:03.035Z,2.42
2022-09-25T20:03:29.681Z,2.25
2022-09-25T20:05:56.358Z,2.22
2022-09-25T20:08:22.634Z,2.72
2022-09-25T20:10:48.814Z,2.80
2022-09-25T20:13:15.007Z,3.35
2022-09-25T20:15:42.689Z,2.92
2022-09-25T20:18:08.941Z,2.65
2022-09-25T20:20:35.729Z,2.72
2022-09-25T20:23:01.937Z,2.60
2022-09-25T20:25:28.109Z,2.83
2022-09-25T20:27:54.805Z,2.55
2022-09-25T20:30:21.703Z,1.80
2022-09-25T20:32:47.972Z,1.98
2022-09-25T20:35:14.286Z,2.42
2022-09-25T20:37:40.507Z,1.95
2022-09-25T20:40:06.964Z,1.88
2022-09-25T20:42:33.838Z,2.28
2022-09-25T20:45:00.067Z,2.13
2022-09-25T20:47:30.029Z,2.03
2022-09-25T20:49:57.307Z,2.30
2022-09-25T20:52:23.480Z,2.10
2022-09-25T20:54:49.687Z,2.30
2022-09-25T20:57:15.855Z,2.10
2022-09-25T20:59:42.037Z,2.60
2022-09-25T21:02:09.450Z,2.03
2022-09-25T21:04:36.175Z,1.77
2022-09-25T21:07:03.539Z,2.10
2022-09-25T21:09:29.903Z,2.03
2022-09-25T21:11:56.120Z,1.60
2022-09-25T21:14:23.918Z,1.58
2022-09-25T21:16:50.994Z,1.98
2022-09-25T21:19:18.188Z,2.20
2022-09-25T21:21:44.629Z,2.28
2022-09-25T21:24:13.266Z,2.20
2022-09-25T21:26:39.624Z,2.40
2022-09-25T21:29:06.245Z,2.00
2022-09-25T21:31:35.217Z,1.83
2022-09-25T21:34:01.780Z,2.00
2022-09-25T21:36:28.359Z,2.17
2022-09-25T21:38:54.814Z,2.40
2022-09-25T21:41:21.982Z,2.63
2022-09-25T21:43:48.523Z,2.40
2022-09-25T21:46:17.907Z,2.65
2022-09-25T21:48:51.563Z,3.17
2022-09-25T21:51:18.644Z,2.67
2022-09-25T21:53:45.133Z,3.17
2022-09-25T21:56:17.046Z,2.63
2022-09-25T21:58:43.299Z,2.90
2022-09-25T22:01:11.371Z,2.80
2022-09-25T22:03:38.697Z,2.78
2022-09-25T22:06:06.577Z,2.80
2022-09-25T22:08:34.778Z,3.00
2022-09-25T22:11:01.168Z,3.22
2022-09-25T22:13:28.242Z,3.17
2022-09-25T22:16:01.316Z,3.40
2022-09-25T22:18:28.249Z,3.58
2022-09-25T22:20:54.789Z,3.13
2022-09-25T22:23:21.345Z,3.50
2022-09-25T22:25:47.615Z,4.15
2022-09-25T22:28:13.854Z,3.67
2022-09-25T22:30:40.085Z,3.38
2022-09-25T22:33:06.356Z,3.47
2022-09-25T22:35:32.572Z,4.10
2022-09-25T22:37:58.763Z,3.65
2022-09-25T22:40:25.130Z,3.97
2022-09-25T22:42:51.434Z,4.00
2022-09-25T22:45:17.649Z,4.25
2022-09-25T22:47:43.853Z,3.88
2022-09-25T22:50:10.050Z,3.50
2022-09-25T22:52:36.330Z,3.95
2022-09-25T22:55:03.068Z,3.58
2022-09-25T22:57:29.369Z,3.97
2022-09-25T22:59:55.659Z,3.53
2022-09-25T23:02:21.861Z,3.72
2022-09-25T23:04:49.458Z,3.70
2022-09-25T23:07:15.773Z,3.83
2022-09-25T23:09:43.066Z,3.80
2022-09-25T23:12:09.274Z,3.65
2022-09-25T23:14:37.448Z,4.20
2022-09-25T23:17:03.730Z,3.10
2022-09-25T23:19:29.997Z,3.72
2022-09-25T23:21:56.231Z,3.60
2022-09-25T23:24:22.900Z,3.38
2022-09-25T23:26:49.162Z,3.85
2022-09-25T23:29:17.471Z,4.10
2022-09-25T23:31:44.193Z,3.40
2022-09-25T23:34:10.915Z,3.75
2022-09-25T23:36:37.401Z,4.10
2022-09-25T23:39:04.152Z,3.92
2022-09-25T23:41:35.736Z,3.80
2022-09-25T23:44:02.862Z,3.47
2022-09-25T23:46:30.978Z,3.20
2022-09-25T23:48:57.497Z,4.25
2022-09-25T23:51:25.159Z,3.75
2022-09-25T23:53:51.872Z,3.55
2022-09-25T23:56:19.564Z,4.07
2022-09-25T23:58:46.092Z,3.25
